createdAt,value
2023-10-23T00:02:50.486Z,10.49
2023-10-23T00:06:02.756Z,10.46
2023-10-23T00:09:15.452Z,10.44
2023-10-23T00:12:27.981Z,10.44
2023-10-23T00:15:41.111Z,10.41
2023-10-23T00:18:53.788Z,10.41
2023-10-23T00:22:06.162Z,10.40
2023-10-23T00:25:18.476Z,10.41
2023-10-23T00:28:30.430Z,10.40
2023-10-23T00:31:42.961Z,10.37
2023-10-23T00:34:55.292Z,10.36
2023-10-23T00:38:07.673Z,10.35
2023-10-23T00:41:19.876Z,10.33
2023-10-23T04:26:04.393Z,8.92
2023-10-23T04:29:16.505Z,8.89
2023-10-23T04:32:28.894Z,8.84
2023-10-23T04:35:41.771Z,8.82
2023-10-23T04:38:53.691Z,8.73
2023-10-23T04:42:05.698Z,8.71
2023-10-23T04:45:18.718Z,8.77
2023-10-23T04:48:30.871Z,8.76
2023-10-23T04:51:43.150Z,8.74
2023-10-23T04:54:56.457Z,8.71
2023-10-23T04:58:09.944Z,8.70
2023-10-23T05:01:26.006Z,8.74
2023-10-23T05:04:39.195Z,8.77
2023-10-23T05:07:51.539Z,8.78
2023-10-23T05:11:14.706Z,8.82
2023-10-23T05:14:26.694Z,8.88
2023-10-23T05:17:38.971Z,8.94
2023-10-23T05:20:51.012Z,9.03
2023-10-23T05:24:03.110Z,9.06
2023-10-23T05:27:15.237Z,8.84
2023-10-23T05:30:28.264Z,9.06
2023-10-23T05:33:40.607Z,9.08
2023-10-23T05:36:52.609Z,9.19
2023-10-23T05:40:06.105Z,9.28
2023-10-23T05:43:18.998Z,9.30
2023-10-23T05:46:31.265Z,9.32
2023-10-23T05:49:43.467Z,9.32
2023-10-23T05:52:55.559Z,9.35
2023-10-23T05:56:11.734Z,9.37
2023-10-23T05:59:25.167Z,9.44
2023-10-23T06:02:37.313Z,9.54
2023-10-23T06:05:50.110Z,9.61
2023-10-23T06:09:02.286Z,9.69
2023-10-23T06:12:16.228Z,9.79
2023-10-23T06:15:28.423Z,9.82
2023-10-23T06:18:42.400Z,9.89
2023-10-23T06:21:54.967Z,10.00
2023-10-23T06:25:07.260Z,10.09
2023-10-23T06:28:19.407Z,10.17
2023-10-23T06:31:31.598Z,10.23
2023-10-23T06:34:43.771Z,10.29
2023-10-23T06:37:55.818Z,10.28
2023-10-23T06:41:12.538Z,10.32
2023-10-23T06:44:23.351Z,10.42
2023-10-23T06:47:35.422Z,10.50
2023-10-23T06:50:53.368Z,10.64
2023-10-23T06:54:05.674Z,10.76
2023-10-23T06:57:17.899Z,10.84
2023-10-23T07:00:30.233Z,10.84
2023-10-23T07:03:42.993Z,10.84
2023-10-23T07:06:55.580Z,10.89
2023-10-23T07:10:08.296Z,10.98
2023-10-23T07:13:23.073Z,11.11
2023-10-23T07:16:34.813Z,11.20
2023-10-23T07:19:47.529Z,11.33
2023-10-23T07:22:59.903Z,11.51
2023-10-23T07:26:16.220Z,11.73
2023-10-23T07:29:28.757Z,12.00
2023-10-23T07:32:41.167Z,12.07
2023-10-23T07:35:53.859Z,12.18
2023-10-23T07:39:06.330Z,12.23
2023-10-23T07:42:18.550Z,12.28
2023-10-23T07:45:30.595Z,12.31
2023-10-23T07:48:43.887Z,12.27
2023-10-23T07:51:56.180Z,12.31
2023-10-23T07:55:09.916Z,12.41
2023-10-23T07:58:23.517Z,12.53
2023-10-23T08:01:35.665Z,12.76
2023-10-23T08:04:49.256Z,13.06
2023-10-23T08:08:01.949Z,13.27
2023-10-23T08:11:18.001Z,13.47
2023-10-23T08:14:30.357Z,14.03
2023-10-23T08:17:43.049Z,14.99
2023-10-23T08:20:55.536Z,15.57
2023-10-23T08:24:07.862Z,15.48
2023-10-23T08:27:19.959Z,15.21
2023-10-23T08:30:32.019Z,15.27
2023-10-23T08:33:44.243Z,15.51
2023-10-23T08:36:56.441Z,16.09
2023-10-23T08:40:09.106Z,15.75
2023-10-23T08:43:21.293Z,15.90
2023-10-23T08:46:36.883Z,16.09
2023-10-23T08:49:51.019Z,15.89
2023-10-23T08:53:09.393Z,15.61
2023-10-23T08:56:21.752Z,15.55
2023-10-23T08:59:35.335Z,15.44
2023-10-23T09:02:51.818Z,15.37
2023-10-23T09:06:04.770Z,15.51
2023-10-23T09:09:17.139Z,15.70
2023-10-23T09:12:41.036Z,16.37
2023-10-23T09:15:59.190Z,16.87
2023-10-23T09:19:11.815Z,17.45
2023-10-23T09:22:24.289Z,17.93
2023-10-23T09:25:36.651Z,18.34
2023-10-23T09:28:48.724Z,18.79
2023-10-23T09:32:04.261Z,19.16
2023-10-23T09:35:17.728Z,18.68
2023-10-23T09:38:51.296Z,18.35
2023-10-23T09:45:20.680Z,18.07
2023-10-23T09:48:35.181Z,18.13
2023-10-23T09:51:54.412Z,18.53
2023-10-23T09:55:11.038Z,18.95
2023-10-23T09:58:24.872Z,19.12
2023-10-23T10:01:44.281Z,18.88
2023-10-23T10:05:05.730Z,19.20
2023-10-23T10:08:22.643Z,18.99
2023-10-23T10:11:35.807Z,19.30
2023-10-23T10:14:49.850Z,19.26
2023-10-23T10:18:02.057Z,19.42
2023-10-23T10:21:18.590Z,19.37
2023-10-23T10:24:31.531Z,19.13
2023-10-23T10:27:44.352Z,19.30
2023-10-23T10:30:58.164Z,19.63
2023-10-23T10:34:26.471Z,19.61
2023-10-23T10:37:29.021Z,19.91
2023-10-23T10:41:30.263Z,20.01
2023-10-23T10:45:20.806Z,20.41
2023-10-23T10:49:12.189Z,20.95
2023-10-23T10:52:36.906Z,20.94
2023-10-23T10:55:52.011Z,21.43
2023-10-23T10:59:08.570Z,21.28
2023-10-23T11:02:20.672Z,21.44
2023-10-23T11:05:33.384Z,21.66
2023-10-23T11:08:46.091Z,21.77
2023-10-23T11:11:58.109Z,21.62
2023-10-23T11:15:11.675Z,21.46
2023-10-23T11:18:26.733Z,21.93
2023-10-23T11:21:41.780Z,21.92
2023-10-23T11:24:54.064Z,22.06
2023-10-23T11:28:08.426Z,21.86
2023-10-23T11:31:20.714Z,21.97
2023-10-23T11:34:33.047Z,21.97
2023-10-23T11:37:49.551Z,21.98
2023-10-23T11:40:59.913Z,22.02
2023-10-23T11:44:12.860Z,21.67
2023-10-23T11:47:24.960Z,21.43
2023-10-23T11:50:39.070Z,21.10
2023-10-23T11:53:53.134Z,20.73
2023-10-23T11:57:05.753Z,20.28
2023-10-23T12:00:22.373Z,20.29
2023-10-23T12:03:35.072Z,20.08
2023-10-23T12:06:48.507Z,19.80
2023-10-23T12:10:00.800Z,19.70
2023-10-23T12:13:13.160Z,19.49
2023-10-23T12:16:25.725Z,19.39
2023-10-23T12:19:38.152Z,19.18
2023-10-23T12:22:53.373Z,19.10
2023-10-23T12:26:05.684Z,18.96
2023-10-23T12:29:18.227Z,18.58
2023-10-23T12:33:16.547Z,18.35
2023-10-23T12:35:45.324Z,18.17
2023-10-23T12:38:57.490Z,18.07
2023-10-23T12:42:10.237Z,18.05
2023-10-23T12:45:22.677Z,18.05
2023-10-23T12:48:34.898Z,18.11
2023-10-23T12:51:47.227Z,17.87
2023-10-23T12:55:00.416Z,17.89
2023-10-23T12:58:13.083Z,17.89
2023-10-23T13:01:25.309Z,17.79
2023-10-23T13:04:38.131Z,17.85
2023-10-23T13:07:50.760Z,17.92
2023-10-23T13:11:03.173Z,17.67
2023-10-23T13:14:15.392Z,17.58
2023-10-23T13:17:27.813Z,17.59
2023-10-23T13:21:29.057Z,17.62
2023-10-23T13:23:54.323Z,17.55
2023-10-23T13:27:06.506Z,17.32
2023-10-23T13:30:19.847Z,17.29
2023-10-23T13:33:32.024Z,17.35
2023-10-23T13:36:44.301Z,17.43
2023-10-23T13:39:56.589Z,17.50
2023-10-23T13:43:09.027Z,17.35
2023-10-23T13:46:21.268Z,17.10
2023-10-23T13:49:33.531Z,16.99
2023-10-23T13:52:46.911Z,16.97
2023-10-23T13:55:59.826Z,16.97
2023-10-23T13:59:11.996Z,16.94
2023-10-23T14:02:24.312Z,16.81
2023-10-23T14:05:38.931Z,16.65
2023-10-23T14:12:51.151Z,16.43
2023-10-23T14:16:05.885Z,16.33
2023-10-23T14:19:33.592Z,16.24
2023-10-23T14:22:33.655Z,16.22
2023-10-23T14:25:45.931Z,16.23
2023-10-23T14:28:58.100Z,16.10
2023-10-23T14:32:10.800Z,16.14
2023-10-23T14:38:38.439Z,15.89
2023-10-23T14:41:50.560Z,15.88
2023-10-23T14:45:05.461Z,15.80
2023-10-23T14:48:18.600Z,15.73
2023-10-23T14:51:30.755Z,15.68
2023-10-23T14:54:42.851Z,15.61
2023-10-23T14:57:55.133Z,15.54
2023-10-23T15:01:09.619Z,15.41
2023-10-23T15:08:10.960Z,15.18
2023-10-23T15:11:25.856Z,15.08
2023-10-23T15:14:38.240Z,15.02
2023-10-23T15:52:46.192Z,13.73
2023-10-23T15:55:59.208Z,13.64
2023-10-23T16:02:16.526Z,13.50
2023-10-23T16:13:37.719Z,13.22
2023-10-23T16:16:42.931Z,13.19
2023-10-23T16:19:56.303Z,13.09
2023-10-23T16:23:09.345Z,13.04
2023-10-23T16:26:21.483Z,12.95
2023-10-23T16:29:33.730Z,12.90
2023-10-23T16:32:53.796Z,12.79
2023-10-23T16:36:13.952Z,12.79
2023-10-23T16:39:26.801Z,12.78
2023-10-23T16:42:38.989Z,12.71
2023-10-23T16:45:51.370Z,12.61
2023-10-23T16:49:03.613Z,12.53
2023-10-23T16:52:16.204Z,12.46
2023-10-23T16:55:29.064Z,12.39
2023-10-23T16:58:41.542Z,12.30
2023-10-23T17:01:53.983Z,12.24
2023-10-23T17:05:08.691Z,12.15
2023-10-23T17:08:22.481Z,12.20
2023-10-23T17:11:35.114Z,12.26
2023-10-23T17:14:48.378Z,12.18
2023-10-23T17:18:00.762Z,12.09
2023-10-23T17:21:14.672Z,11.91
2023-10-23T17:24:26.913Z,11.68
2023-10-23T17:27:39.117Z,11.45
2023-10-23T17:30:53.574Z,11.44
2023-10-23T17:34:07.607Z,11.45
2023-10-23T17:37:19.972Z,11.48
2023-10-23T17:40:32.902Z,11.46
2023-10-23T17:43:46.642Z,11.45
2023-10-23T17:47:00.219Z,11.42
2023-10-23T17:50:15.099Z,11.26
2023-10-23T17:53:27.323Z,11.06
2023-10-23T17:56:41.674Z,10.92
2023-10-23T17:59:54.108Z,11.04
2023-10-23T18:03:07.650Z,11.01
2023-10-23T18:06:20.565Z,10.98
2023-10-23T18:09:32.793Z,10.95
2023-10-23T18:12:44.913Z,10.97
2023-10-23T18:15:57.217Z,10.98
2023-10-23T18:19:13.711Z,10.94
2023-10-23T18:22:26.086Z,10.94
2023-10-23T18:25:38.600Z,10.87
2023-10-23T18:28:51.632Z,10.88
2023-10-23T18:32:06.443Z,10.84
2023-10-23T18:35:19.090Z,10.85
2023-10-23T18:38:31.511Z,10.73
2023-10-23T18:41:43.606Z,10.75
2023-10-23T18:44:56.439Z,10.73
2023-10-23T18:48:09.988Z,10.51
2023-10-23T18:51:22.698Z,10.34
2023-10-23T18:54:36.938Z,10.41
2023-10-23T18:57:49.203Z,10.44
2023-10-23T19:01:03.619Z,10.43
2023-10-23T19:04:16.296Z,10.39
2023-10-23T19:07:28.754Z,10.41
2023-10-23T19:10:42.553Z,10.35
2023-10-23T19:13:54.953Z,10.27
2023-10-23T19:17:07.825Z,10.21
2023-10-23T19:20:20.841Z,10.18
2023-10-23T19:23:33.729Z,10.09
2023-10-23T19:26:47.120Z,10.06
2023-10-23T19:30:02.743Z,10.06
2023-10-23T19:33:16.879Z,10.03
2023-10-23T19:36:34.837Z,10.02
2023-10-23T19:39:49.273Z,9.96
2023-10-23T19:43:06.455Z,9.92
2023-10-23T19:46:20.887Z,9.80
2023-10-23T19:49:35.592Z,9.83
2023-10-23T19:52:51.041Z,9.83
2023-10-23T19:56:07.163Z,9.66
2023-10-23T19:59:19.300Z,9.61
2023-10-23T20:02:31.947Z,9.50
2023-10-23T20:05:44.707Z,9.52
2023-10-23T20:08:57.142Z,9.52
2023-10-23T20:12:09.806Z,9.50
2023-10-23T20:15:23.301Z,9.51
2023-10-23T20:18:35.799Z,9.51
2023-10-23T20:21:48.339Z,9.46
2023-10-23T20:25:01.670Z,9.42
2023-10-23T20:28:13.965Z,9.33
2023-10-23T20:31:27.370Z,9.29
2023-10-23T20:34:39.786Z,9.25
2023-10-23T20:37:52.077Z,9.22
2023-10-23T20:41:05.147Z,9.16
2023-10-23T20:44:17.401Z,9.18
2023-10-23T20:47:29.694Z,9.13
2023-10-23T20:50:44.281Z,9.06
2023-10-23T20:53:56.516Z,9.07
2023-10-23T20:57:09.765Z,9.02
2023-10-23T21:00:23.753Z,8.82
2023-10-23T21:03:58.392Z,8.78
2023-10-23T21:07:11.117Z,8.77
2023-10-23T21:10:23.569Z,8.70
2023-10-23T21:13:35.744Z,8.68
2023-10-23T21:16:47.837Z,8.60
2023-10-23T21:20:00.193Z,8.65
2023-10-23T21:23:12.274Z,8.55
2023-10-23T21:26:25.241Z,8.48
2023-10-23T21:29:37.506Z,8.53
2023-10-23T21:32:50.168Z,8.53
2023-10-23T21:36:02.672Z,8.53
2023-10-23T21:39:14.973Z,8.53
2023-10-23T21:42:27.095Z,8.49
2023-10-23T21:45:39.559Z,8.47
2023-10-23T21:48:51.437Z,8.50
2023-10-23T21:52:05.907Z,8.38
2023-10-23T21:55:23.654Z,8.38
2023-10-23T21:59:03.370Z,8.34
2023-10-23T22:01:54.378Z,8.34
2023-10-23T22:39:27.796Z,8.04
2023-10-23T22:42:40.219Z,7.89
2023-10-23T22:46:02.213Z,7.92
2023-10-23T22:49:07.515Z,7.82
2023-10-23T22:52:21.747Z,7.72
2023-10-23T22:55:35.822Z,7.79
2023-10-23T22:58:49.983Z,7.73
2023-10-23T23:02:03.843Z,7.67
2023-10-23T23:05:19.151Z,7.65
2023-10-23T23:08:33.878Z,7.68
2023-10-23T23:11:57.373Z,7.73
2023-10-23T23:46:41.191Z,6.97
2023-10-23T23:53:54.603Z,7.38
2023-10-23T23:57:23.478Z,7.35
